createdAt,value
2023-04-14T00:02:29.759Z,44.5
2023-04-14T00:07:47.758Z,44.4
2023-04-14T00:13:06.328Z,44.4
2023-04-14T00:18:24.956Z,44.4
2023-04-14T00:23:43.329Z,45
2023-04-14T00:29:02.514Z,45.4
2023-04-14T00:34:21.276Z,44.4
2023-04-14T00:39:39.554Z,44.1
2023-04-14T00:44:58.096Z,44.4
2023-04-14T00:50:16.120Z,45.1
2023-04-14T00:55:34.469Z,44.4
2023-04-14T01:00:52.650Z,44.7
2023-04-14T01:06:11.116Z,44.4
2023-04-14T01:11:29.562Z,44.4
2023-04-14T01:16:47.905Z,44.4
2023-04-14T01:22:06.301Z,44.7
2023-04-14T01:27:24.445Z,45
2023-04-14T01:32:42.872Z,44.5
2023-04-14T01:38:01.177Z,44.9
2023-04-14T01:43:19.483Z,45.2
2023-04-14T01:48:37.665Z,44.8
2023-04-14T01:53:55.697Z,44.4
2023-04-14T01:59:13.737Z,45.1
2023-04-14T02:04:32.050Z,45
2023-04-14T02:09:50.433Z,44.6
2023-04-14T02:15:08.733Z,45.2
2023-04-14T02:20:26.912Z,44.6
2023-04-14T02:25:45.667Z,44.4
2023-04-14T02:31:03.781Z,45.3
2023-04-14T02:36:22.671Z,44.4
2023-04-14T02:41:40.893Z,44.5
2023-04-14T02:46:58.997Z,44.5
2023-04-14T02:52:17.320Z,44.9
2023-04-14T02:57:35.751Z,44.6
2023-04-14T03:02:54.311Z,44.5
2023-04-14T03:08:12.842Z,45.3
2023-04-14T03:13:31.065Z,45.1
2023-04-14T03:18:49.433Z,45.7
2023-04-14T03:24:07.776Z,45.3
2023-04-14T03:29:26.121Z,45.2
2023-04-14T03:34:44.423Z,44.6
2023-04-14T03:40:02.791Z,44.5
2023-04-14T03:45:21.180Z,45.2
2023-04-14T03:50:39.517Z,44.5
2023-04-14T03:55:58.087Z,45
2023-04-14T04:01:16.124Z,44.7
2023-04-14T04:06:34.454Z,44.5
2023-04-14T04:11:52.828Z,45.2
2023-04-14T04:17:11.016Z,45.3
2023-04-14T04:22:28.952Z,44.5
2023-04-14T04:27:47.525Z,45.2
2023-04-14T04:33:06.232Z,44.4
2023-04-14T04:38:24.490Z,44.6
2023-04-14T04:43:42.650Z,45.2
2023-04-14T04:49:02.064Z,44.5
2023-04-14T04:54:20.487Z,44.5
2023-04-14T04:59:39.350Z,45.2
2023-04-14T05:04:58.111Z,44.9
2023-04-14T05:10:16.259Z,44.6
2023-04-14T05:15:34.911Z,45.1
2023-04-14T05:20:53.508Z,44.9
2023-04-14T05:26:51.597Z,44.6
2023-04-14T05:32:16.137Z,44.8
2023-04-14T05:37:37.040Z,45.5
2023-04-14T05:42:57.906Z,44.8
2023-04-14T05:48:16.269Z,44.9
2023-04-14T05:53:34.632Z,44.5
2023-04-14T05:58:53.297Z,44.4
2023-04-14T06:04:12.792Z,44.4
2023-04-14T06:09:31.109Z,44.4
2023-04-14T06:14:49.293Z,44.5
2023-04-14T06:20:07.440Z,45
2023-04-14T06:25:26.038Z,44.7
2023-04-14T06:30:44.587Z,45.1
2023-04-14T06:36:03.214Z,45.1
2023-04-14T06:41:21.472Z,44.5
2023-04-14T06:46:39.878Z,44.4
2023-04-14T06:51:58.226Z,44.9
2023-04-14T06:57:16.440Z,44.9
2023-04-14T07:02:34.944Z,44.4
2023-04-14T07:07:53.429Z,44.5
2023-04-14T07:13:11.880Z,45
2023-04-14T07:18:30.501Z,44.7
2023-04-14T07:23:49.266Z,45.2
2023-04-14T07:29:07.552Z,45
2023-04-14T07:34:25.721Z,44.1
2023-04-14T07:39:44.041Z,44.2
2023-04-14T07:45:02.380Z,44.7
2023-04-14T07:50:20.670Z,44.3
2023-04-14T07:55:39.113Z,44
2023-04-14T08:00:57.531Z,44.7
2023-04-14T08:06:16.198Z,44.8
2023-04-14T08:11:34.365Z,43.9
2023-04-14T08:16:52.882Z,43.9
2023-04-14T08:22:10.857Z,43.8
2023-04-14T08:27:28.814Z,43.8
2023-04-14T08:32:47.043Z,44.4
2023-04-14T08:38:05.649Z,43.8
2023-04-14T08:43:23.990Z,44.2
2023-04-14T08:48:42.269Z,43.9
2023-04-14T08:54:01.423Z,44
2023-04-14T08:59:20.007Z,43.6
2023-04-14T09:04:39.367Z,44.2
2023-04-14T09:09:57.645Z,44.3
2023-04-14T09:15:16.192Z,43.5
2023-04-14T09:20:42.636Z,43.8
2023-04-14T09:26:01.278Z,43.5
2023-04-14T09:31:20.169Z,43.7
2023-04-14T09:36:38.881Z,43.7
2023-04-14T09:41:57.344Z,43.9
2023-04-14T09:47:15.694Z,43.4
2023-04-14T09:52:34.447Z,44.2
2023-04-14T09:57:52.745Z,43.9
2023-04-14T10:03:11.385Z,43.4
2023-04-14T10:08:29.827Z,43.9
2023-04-14T10:13:48.165Z,44.1
2023-04-14T10:19:07.683Z,43.5
2023-04-14T10:24:26.265Z,44
2023-04-14T10:29:44.835Z,43.4
2023-04-14T10:35:03.203Z,43.4
2023-04-14T10:40:23.912Z,43.4
2023-04-14T10:45:42.274Z,43.6
2023-04-14T10:51:00.712Z,43.7
2023-04-14T10:56:18.835Z,44.1
2023-04-14T11:01:36.962Z,43.4
2023-04-14T11:06:55.348Z,43.8
2023-04-14T11:12:13.480Z,36
2023-04-14T11:17:32.053Z,36
2023-04-14T11:22:50.503Z,35.1
2023-04-14T11:28:08.942Z,37.2
2023-04-14T11:33:27.106Z,37.7
2023-04-14T11:38:46.962Z,36.7
2023-04-14T11:44:05.765Z,36.3
2023-04-14T11:49:24.566Z,36
2023-04-14T11:54:42.758Z,37.8
2023-04-14T12:00:01.651Z,38
2023-04-14T12:05:20.163Z,38.3
2023-04-14T12:10:38.302Z,39.4
2023-04-14T12:15:56.863Z,39.2
2023-04-14T12:21:15.436Z,39.1
2023-04-14T12:26:33.661Z,39.6
2023-04-14T12:31:52.300Z,39.7
2023-04-14T12:37:10.854Z,39.9
2023-04-14T12:42:29.371Z,40.9
2023-04-14T12:47:47.800Z,39.5
2023-04-14T12:53:06.412Z,39.5
2023-04-14T12:58:24.908Z,40
2023-04-14T13:03:44.019Z,39.6
2023-04-14T13:09:04.026Z,40.2
2023-04-14T13:14:22.201Z,40.7
2023-04-14T13:19:40.738Z,40.4
2023-04-14T13:24:59.058Z,40.7
2023-04-14T13:30:17.624Z,40.2
2023-04-14T13:35:35.876Z,39.7
2023-04-14T13:40:55.103Z,40.4
2023-04-14T13:46:13.944Z,40.4
2023-04-14T13:51:37.983Z,40
2023-04-14T13:56:40.697Z,40.1
2023-04-14T14:02:00.002Z,40.3
2023-04-14T14:07:18.118Z,40.4
2023-04-14T14:12:36.213Z,40.9
2023-04-14T14:17:38.716Z,40.9
2023-04-14T14:22:57.105Z,40.7
2023-04-14T14:28:15.695Z,40.5
2023-04-14T14:33:34.152Z,40.9
2023-04-14T14:38:52.550Z,40.4
2023-04-14T14:44:10.742Z,41.1
2023-04-14T14:49:29.072Z,40.8
2023-04-14T14:54:47.221Z,36.3
2023-04-14T15:00:05.545Z,38.6
2023-04-14T15:05:23.689Z,40.5
2023-04-14T15:10:47.448Z,42.3
2023-04-14T15:16:06.112Z,42.3
2023-04-14T15:21:24.275Z,42.7
2023-04-14T15:26:42.456Z,42.6
2023-04-14T15:32:01.071Z,42.3
2023-04-14T15:37:19.348Z,43.6
2023-04-14T15:42:37.799Z,43.9
2023-04-14T15:47:56.414Z,43.1
2023-04-14T15:53:14.890Z,43.4
2023-04-14T15:58:33.066Z,44.3
2023-04-14T16:03:53.552Z,44.6
2023-04-14T16:09:11.788Z,44.4
2023-04-14T16:14:29.976Z,44.4
2023-04-14T16:19:48.108Z,44.6
2023-04-14T16:25:06.608Z,44.6
2023-04-14T16:30:24.888Z,44.4
2023-04-14T16:35:42.992Z,43.9
2023-04-14T16:41:01.537Z,44.5
2023-04-14T16:46:19.981Z,43.8
2023-04-14T16:51:38.803Z,44.3
2023-04-14T16:56:57.521Z,44
2023-04-14T17:02:16.413Z,44
2023-04-14T17:07:34.915Z,44.6
2023-04-14T17:12:53.379Z,44.1
2023-04-14T17:18:11.930Z,45.1
2023-04-14T17:23:30.326Z,45.7
2023-04-14T17:28:48.644Z,45.4
2023-04-14T17:34:07.093Z,45.8
2023-04-14T17:39:25.690Z,45.6
2023-04-14T17:44:43.792Z,46.1
2023-04-14T17:50:03.489Z,45.9
2023-04-14T17:55:21.794Z,45.4
2023-04-14T18:00:40.732Z,45.4
2023-04-14T18:05:59.646Z,45.2
2023-04-14T18:11:18.873Z,45.1
2023-04-14T18:16:37.712Z,44.7
2023-04-14T18:21:56.038Z,45.6
2023-04-14T18:32:41.496Z,45.8
2023-04-14T18:37:59.916Z,47.1
2023-04-14T18:43:18.472Z,46.8
2023-04-14T18:48:37.004Z,47.1
2023-04-14T18:53:55.484Z,47
2023-04-14T18:59:13.993Z,47.6
2023-04-14T19:04:32.479Z,46.9
2023-04-14T19:09:50.804Z,47.3
2023-04-14T19:15:09.127Z,46.6
2023-04-14T19:20:27.671Z,46.9
2023-04-14T19:25:46.448Z,46.5
2023-04-14T19:31:05.055Z,47.1
2023-04-14T19:36:23.223Z,47.2
2023-04-14T19:41:41.882Z,46.6
2023-04-14T19:47:00.639Z,47.3
2023-04-14T19:52:19.130Z,47.1
2023-04-14T19:57:37.490Z,46.4
2023-04-14T20:02:55.976Z,47.1
2023-04-14T20:08:14.522Z,46.3
2023-04-14T20:13:32.733Z,46.3
2023-04-14T20:18:51.360Z,45.9
2023-04-14T20:24:10.057Z,46.7
2023-04-14T20:29:28.448Z,46.3
2023-04-14T20:34:47.092Z,46.9
2023-04-14T20:40:05.072Z,47
2023-04-14T20:45:23.189Z,46.2
2023-04-14T20:50:41.339Z,46.8
2023-04-14T20:55:59.673Z,46.2
2023-04-14T21:01:17.894Z,46.3
2023-04-14T21:06:36.526Z,46.9
2023-04-14T21:12:16.916Z,47.2
2023-04-14T21:17:35.470Z,47.1
2023-04-14T21:22:53.818Z,47.1
2023-04-14T21:28:12.134Z,47.2
2023-04-14T21:33:33.236Z,47
2023-04-14T21:38:51.596Z,46.9
2023-04-14T21:44:09.512Z,46.1
2023-04-14T21:49:27.559Z,46.8
2023-04-14T21:54:46.304Z,46.2
2023-04-14T22:00:04.667Z,46.1
2023-04-14T22:05:23.284Z,46.3
2023-04-14T22:10:41.839Z,45.7
2023-04-14T22:16:00.182Z,46.1
2023-04-14T22:21:18.775Z,46.3
2023-04-14T22:26:36.934Z,45.5
2023-04-14T22:31:55.086Z,45.7
2023-04-14T22:37:16.380Z,45.4
2023-04-14T22:42:34.739Z,46.2
2023-04-14T22:47:52.807Z,45.8
2023-04-14T22:53:11.108Z,46.3
2023-04-14T22:58:29.245Z,45.6
2023-04-14T23:03:47.619Z,45.5
2023-04-14T23:09:05.951Z,46.3
2023-04-14T23:14:23.888Z,45.6
2023-04-14T23:19:42.415Z,45.7
2023-04-14T23:25:00.969Z,45.7
2023-04-14T23:30:19.153Z,46.1
2023-04-14T23:35:37.525Z,45.9
2023-04-14T23:40:55.517Z,45.9
2023-04-14T23:46:13.773Z,46.3
2023-04-14T23:51:32.190Z,45.8
2023-04-14T23:56:50.695Z,46.9
